Time;durP1;ratioP1;P1;durP2;ratioP2;P2;SDS_P1;SDS_P2;PMS_P1;PMS_P2;Temp;Humidity;BMP_temperature;BMP_pressure;BME280_temperature;BME280_humidity;BME280_pressure;Samples;Min_cycle;Max_cycle;Signal;HPM_P1;HPM_P2
2021/11/16 00:00:37;;;;;;;68.83;28.03;;;;;;;4.83;93.98;102323.28;2090813;28;20032;-71
2021/11/16 00:01:39;;;;;;;70.75;31.00;;;;;;;4.81;94.23;102324.97;2090793;28;20021;-70
2021/11/16 00:02:40;;;;;;;59.10;26.48;;;;;;;4.79;93.35;102322.38;2090797;28;20025;-71
2021/11/16 00:03:41;;;;;;;60.40;27.92;;;;;;;4.79;93.12;102324.94;2090121;28;20422;-71
2021/11/16 00:04:41;;;;;;;60.53;28.40;;;;;;;4.82;93.57;102324.97;2090176;28;20029;-71
2021/11/16 00:05:42;;;;;;;60.78;26.73;;;;;;;4.84;93.14;102325.88;2090611;28;20032;-71
2021/11/16 00:06:46;;;;;;;58.17;26.97;;;;;;;4.82;93.15;102322.38;2090083;28;20114;-71
2021/11/16 00:07:48;;;;;;;60.70;26.65;;;;;;;4.82;93.60;102327.56;2090150;28;20017;-71
2021/11/16 00:08:49;;;;;;;56.78;26.98;;;;;;;4.82;93.98;102319.81;2090708;28;20021;-71
2021/11/16 00:09:49;;;;;;;63.83;28.37;;;;;;;4.84;94.35;102320.69;2090759;28;20048;-71
2021/11/16 00:10:51;;;;;;;63.67;29.27;;;;;;;4.83;94.10;102324.13;2090731;28;20275;-72
2021/11/16 00:11:51;;;;;;;68.07;28.08;;;;;;;4.83;93.92;102324.13;2090666;28;20032;-71
2021/11/16 00:12:52;;;;;;;56.70;26.80;;;;;;;4.84;93.94;102315.53;2090734;28;20112;-71
2021/11/16 00:13:52;;;;;;;61.67;27.40;;;;;;;4.84;94.46;102314.63;2090726;28;20501;-71
2021/11/16 00:14:53;;;;;;;61.17;26.27;;;;;;;4.85;94.57;102316.38;2090719;28;20020;-71
2021/11/16 00:15:55;;;;;;;62.03;30.02;;;;;;;4.86;94.02;102316.38;2090673;28;20025;-71
2021/11/16 00:16:56;;;;;;;65.32;28.10;;;;;;;4.86;94.01;102308.63;2090667;28;20471;-71
2021/11/16 00:17:56;;;;;;;59.03;27.23;;;;;;;4.88;93.58;102312.09;2090541;28;20056;-71
2021/11/16 00:18:59;;;;;;;70.60;28.80;;;;;;;4.90;93.18;102314.69;2090010;28;20044;-72
2021/11/16 00:20:01;;;;;;;63.35;29.65;;;;;;;4.92;92.57;102312.09;2082097;28;20048;-71
2021/11/16 00:21:04;;;;;;;63.85;29.13;;;;;;;4.92;92.23;102315.53;2090075;28;20118;-71
2021/11/16 00:22:04;;;;;;;63.83;29.10;;;;;;;4.90;92.40;102304.34;2090580;28;20131;-69
2021/11/16 00:23:05;;;;;;;67.78;27.73;;;;;;;4.90;93.00;102310.34;2090677;28;20025;-70
2021/11/16 00:24:11;;;;;;;60.67;27.43;;;;;;;4.90;93.05;102305.19;2090494;28;20025;-69
2021/11/16 00:26:15;;;;;;;70.03;28.65;;;;;;;4.88;93.52;102311.22;2090577;28;20044;-69
2021/11/16 00:27:15;;;;;;;62.27;28.40;;;;;;;4.89;93.88;102312.94;2090602;28;20479;-70
2021/11/16 00:28:15;;;;;;;61.27;26.43;;;;;;;4.86;93.69;102308.63;2090604;28;20082;-69
2021/11/16 00:29:16;;;;;;;66.87;28.17;;;;;;;4.86;93.69;102316.38;2090767;28;20053;-69
2021/11/16 00:30:17;;;;;;;58.80;25.77;;;;;;;4.85;93.32;102309.47;2089824;28;20509;-67
2021/11/16 00:31:19;;;;;;;59.33;25.35;;;;;;;4.85;93.68;102308.59;2089984;28;20063;-67
2021/11/16 00:32:19;;;;;;;63.85;31.40;;;;;;;4.81;92.37;102314.63;2090594;28;20060;-67
2021/11/16 00:33:21;;;;;;;58.50;27.73;;;;;;;4.79;92.05;102312.03;2090527;28;20506;-67
2021/11/16 00:34:21;;;;;;;66.40;27.90;;;;;;;4.80;92.74;102307.72;2090589;28;20044;-66
2021/11/16 00:35:22;;;;;;;68.83;29.63;;;;;;;4.81;92.97;102299.97;2090505;28;20047;-67
2021/11/16 00:36:22;;;;;;;58.53;27.30;;;;;;;4.81;93.17;102307.72;2090562;28;20071;-66
2021/11/16 00:37:26;;;;;;;66.83;28.17;;;;;;;4.81;93.37;102306.84;2089842;28;20135;-66
2021/11/16 00:38:27;;;;;;;60.10;27.20;;;;;;;4.78;93.21;102299.94;2089928;28;20039;-67
2021/11/16 00:39:27;;;;;;;57.90;28.10;;;;;;;4.78;93.20;102299.94;2089957;28;20025;-67
2021/11/16 00:40:28;;;;;;;63.53;27.03;;;;;;;4.81;92.76;102305.16;2089893;28;20024;-66
2021/11/16 00:41:28;;;;;;;58.97;26.67;;;;;;;4.81;92.81;102299.97;2090456;28;20051;-67
2021/11/16 00:42:28;;;;;;;56.87;26.13;;;;;;;4.81;92.69;102301.69;2090442;28;20037;-66
2021/11/16 00:43:29;;;;;;;58.90;25.43;;;;;;;4.83;93.36;102289.63;2089797;28;20156;-67
2021/11/16 00:44:29;;;;;;;60.87;25.40;;;;;;;4.83;92.78;102290.47;2089890;28;20029;-67
2021/11/16 00:45:30;;;;;;;59.47;26.17;;;;;;;4.83;92.81;102287.91;2090328;28;20032;-67
2021/11/16 00:46:30;;;;;;;64.15;30.63;;;;;;;4.83;92.87;102282.72;2089117;28;20067;-66
2021/11/16 00:47:30;;;;;;;68.33;26.90;;;;;;;4.86;92.51;102281.91;2089663;28;20028;-67
2021/11/16 00:48:31;;;;;;;63.67;27.33;;;;;;;4.85;93.53;102283.63;2081567;28;20033;-67
2021/11/16 00:49:32;;;;;;;59.60;26.85;;;;;;;4.86;93.66;102294.84;2089834;28;20486;-67
2021/11/16 00:50:34;;;;;;;59.22;27.08;;;;;;;4.85;93.16;102286.19;2090382;28;20039;-66
2021/11/16 00:51:34;;;;;;;66.00;28.02;;;;;;;4.84;93.22;102284.47;2089686;28;20072;-67
2021/11/16 00:52:35;;;;;;;62.03;29.23;;;;;;;4.84;93.29;102291.34;2089713;28;20529;-66
2021/11/16 00:53:36;;;;;;;61.58;25.80;;;;;;;4.83;93.43;102293.06;2089986;28;20390;-70
2021/11/16 00:54:38;;;;;;;60.35;26.83;;;;;;;4.81;93.33;102284.44;2090262;28;20028;-70
2021/11/16 00:55:38;;;;;;;68.25;28.27;;;;;;;4.82;93.28;102283.59;2089680;28;20103;-69
2021/11/16 00:56:38;;;;;;;61.22;26.35;;;;;;;4.82;93.13;102281.00;2089794;28;20012;-70
2021/11/16 00:57:39;;;;;;;59.07;28.23;;;;;;;4.81;93.21;102278.41;2090364;28;20048;-70
2021/11/16 00:58:39;;;;;;;58.45;24.80;;;;;;;4.81;93.67;102276.69;2090391;28;20460;-70
2021/11/16 00:59:40;;;;;;;62.87;25.73;;;;;;;4.79;93.60;102283.56;2090356;28;20078;-70
2021/11/16 01:00:40;;;;;;;59.00;26.90;;;;;;;4.78;94.59;102276.66;2090311;28;20047;-70
2021/11/16 01:01:40;;;;;;;59.10;27.27;;;;;;;4.76;94.80;102281.00;2090361;28;20025;-70
2021/11/16 01:02:41;;;;;;;61.33;25.43;;;;;;;4.74;94.56;102274.94;2089652;28;20509;-70
2021/11/16 01:03:41;;;;;;;60.72;27.15;;;;;;;4.73;94.55;102280.97;2089702;28;20036;-70
2021/11/16 01:04:48;;;;;;;67.30;29.17;;;;;;;4.73;94.30;102275.78;2090316;28;20063;-71
2021/11/16 01:05:48;;;;;;;56.35;27.95;;;;;;;4.73;94.10;102273.22;2090219;28;20410;-70
2021/11/16 01:06:49;;;;;;;61.00;27.27;;;;;;;4.74;94.01;102274.94;2090265;28;20056;-70
2021/11/16 01:07:50;;;;;;;64.50;27.77;;;;;;;4.75;93.87;102274.94;2090292;28;20033;-69
2021/11/16 01:08:50;;;;;;;60.47;25.25;;;;;;;4.76;93.66;102275.81;2090300;28;20024;-69
2021/11/16 01:09:51;;;;;;;67.20;27.07;;;;;;;4.75;93.07;102276.66;2090250;28;20025;-70
2021/11/16 01:10:52;;;;;;;60.37;27.63;;;;;;;4.75;93.25;102271.47;2089622;28;20021;-70
2021/11/16 01:11:53;;;;;;;58.70;27.48;;;;;;;4.74;94.03;102275.81;2089631;28;20112;-69
2021/11/16 01:12:53;;;;;;;61.30;26.17;;;;;;;4.73;94.09;102268.03;2089618;28;20017;-70
2021/11/16 01:13:54;;;;;;;66.97;29.17;;;;;;;4.71;94.79;102272.31;2089674;28;20025;-70
2021/11/16 01:14:57;;;;;;;59.13;27.33;;;;;;;4.72;94.46;102268.91;2090247;28;20021;-70
2021/11/16 01:15:58;;;;;;;61.33;28.20;;;;;;;4.71;94.15;102261.97;2089527;28;20013;-70
2021/11/16 01:16:59;;;;;;;59.25;24.98;;;;;;;4.71;94.33;102259.38;2081343;28;20021;-70
2021/11/16 01:18:00;;;;;;;;;;;;;;;4.75;94.06;102266.31;2090080;28;20021;-70
2021/11/16 01:19:01;;;;;;;51.53;22.42;;;;;;;4.74;94.15;102270.63;2090164;28;19954;-70
2021/11/16 01:20:05;;;;;;;65.95;27.90;;;;;;;4.71;94.36;102267.16;2089495;28;20115;-70
2021/11/16 01:21:05;;;;;;;63.70;28.02;;;;;;;4.68;94.41;102259.41;2089628;28;20035;-70
2021/11/16 01:22:06;;;;;;;62.33;27.30;;;;;;;4.67;94.44;102265.41;2089556;28;20036;-70
2021/11/16 01:23:09;;;;;;;61.60;28.13;;;;;;;4.67;94.58;102261.09;2089640;28;20567;-70
2021/11/16 01:24:09;;;;;;;57.50;26.77;;;;;;;4.68;94.73;102264.56;2089286;28;20047;-69
2021/11/16 01:25:10;;;;;;;63.37;28.50;;;;;;;4.67;94.95;102260.22;2089620;28;20029;-70
2021/11/16 01:26:11;;;;;;;55.78;26.60;;;;;;;4.67;94.77;102260.22;2090063;28;20032;-70
2021/11/16 01:27:17;;;;;;;56.87;27.27;;;;;;;4.68;94.13;102262.00;2089503;28;20031;-70
2021/11/16 01:28:23;;;;;;;58.22;27.60;;;;;;;4.68;94.53;102265.41;2089615;28;20086;-70
2021/11/16 01:29:24;;;;;;;60.78;27.58;;;;;;;4.70;94.75;102260.25;2090147;28;20417;-70
2021/11/16 01:30:26;;;;;;;52.35;26.70;;;;;;;4.69;94.32;102269.72;2090116;28;20021;-71
2021/11/16 01:31:27;;;;;;;54.38;25.67;;;;;;;4.69;94.21;102266.28;2089487;28;20020;-70
2021/11/16 01:32:40;;;;;;;60.80;26.48;;;;;;;4.68;94.52;102262.81;2089659;28;20105;-71
2021/11/16 01:34:00;;;;;;;58.45;27.40;;;;;;;4.69;94.89;102264.56;2090140;28;20020;-71
2021/11/16 01:35:01;;;;;;;57.25;25.48;;;;;;;4.70;94.83;102268.00;2090128;28;20052;-70
2021/11/16 01:36:01;;;;;;;65.00;27.67;;;;;;;4.68;95.15;102257.66;2090181;28;20028;-71
2021/11/16 01:37:02;;;;;;;55.03;24.27;;;;;;;4.66;95.26;102261.09;2090139;28;20021;-70
2021/11/16 01:38:04;;;;;;;54.37;26.93;;;;;;;4.67;94.98;102260.22;2090128;28;20474;-70
2021/11/16 01:39:05;;;;;;;59.03;26.58;;;;;;;4.64;95.06;102256.78;2090101;28;20033;-70
2021/11/16 01:40:08;;;;;;;;;;;;;;;4.66;95.02;102258.50;2089883;28;20070;-70
2021/11/16 01:41:10;;;;;;;63.42;26.05;;;;;;;4.64;95.02;102259.38;2081457;28;20309;-70
2021/11/16 01:42:11;;;;;;;52.50;27.83;;;;;;;4.66;94.91;102256.81;2089564;28;20047;-70
2021/11/16 01:43:12;;;;;;;58.50;28.63;;;;;;;4.61;94.19;102254.19;2089359;28;20125;-70
2021/11/16 01:44:13;;;;;;;59.17;28.23;;;;;;;4.62;95.41;102248.16;2089538;28;20063;-70
2021/11/16 01:45:14;;;;;;;58.33;27.15;;;;;;;4.63;95.97;102249.03;2090120;28;20029;-71
2021/11/16 01:46:17;;;;;;;65.45;28.33;;;;;;;4.62;95.13;102248.16;2090043;28;20359;-70
2021/11/16 01:47:19;;;;;;;60.58;28.05;;;;;;;4.63;94.96;102251.59;2090056;28;20021;-70
2021/11/16 01:48:19;;;;;;;63.25;27.65;;;;;;;4.64;94.71;102250.75;2090102;28;20021;-70
2021/11/16 01:49:20;;;;;;;58.30;27.60;;;;;;;4.65;95.10;102247.28;2090115;28;20068;-71
2021/11/16 01:50:22;;;;;;;60.92;30.17;;;;;;;4.66;94.69;102240.41;2090095;28;20295;-71
2021/11/16 01:51:26;;;;;;;65.95;28.48;;;;;;;4.67;94.75;102244.72;2089973;28;20025;-70
2021/11/16 01:52:26;;;;;;;58.35;27.73;;;;;;;4.66;94.82;102241.28;2090052;28;20032;-70
2021/11/16 01:53:27;;;;;;;51.37;24.73;;;;;;;4.66;95.14;102240.41;2090108;28;20036;-70
2021/11/16 01:54:28;;;;;;;67.40;29.33;;;;;;;4.65;95.38;102242.13;2090080;28;20075;-70
2021/11/16 01:55:28;;;;;;;68.87;30.20;;;;;;;4.66;95.72;102249.03;2089297;28;20497;-70
2021/11/16 01:56:37;;;;;;;61.00;26.43;;;;;;;4.65;95.32;102247.28;2089493;28;20028;-70
2021/11/16 01:57:40;;;;;;;63.83;28.67;;;;;;;4.65;95.72;102252.47;2089466;28;20021;-70
2021/11/16 01:58:40;;;;;;;62.13;29.50;;;;;;;4.63;95.05;102239.53;2091153;28;20032;-70
2021/11/16 01:59:41;;;;;;;58.13;26.73;;;;;;;4.62;95.24;102244.72;2091061;28;20055;-70
2021/11/16 02:00:44;;;;;;;58.47;28.10;;;;;;;4.60;95.57;102249.00;2091157;28;20044;-70
2021/11/16 02:01:48;;;;;;;70.70;32.42;;;;;;;4.58;95.20;102248.97;2091668;28;20095;-70
2021/11/16 02:02:48;;;;;;;61.60;29.02;;;;;;;4.58;96.35;102246.41;2091593;28;20471;-70
2021/11/16 02:03:49;;;;;;;62.70;29.40;;;;;;;4.58;96.61;102245.56;2091793;28;20024;-70
2021/11/16 02:04:49;;;;;;;66.40;31.57;;;;;;;4.56;96.65;102248.13;2091109;28;20703;-70
2021/11/16 02:06:13;;;;;;;63.70;28.60;;;;;;;4.56;96.31;102242.97;2091041;28;20040;-71
2021/11/16 02:07:13;;;;;;;69.53;30.55;;;;;;;4.54;96.37;102243.78;2090966;28;20024;-70
2021/11/16 02:08:14;;;;;;;64.10;27.43;;;;;;;4.53;96.76;102239.47;2091067;28;20043;-71
2021/11/16 02:09:16;;;;;;;60.95;28.15;;;;;;;4.54;96.83;102239.50;2091038;28;20071;-70
2021/11/16 02:10:17;;;;;;;58.65;27.08;;;;;;;4.54;96.29;102242.06;2091030;28;20033;-70
2021/11/16 02:11:17;;;;;;;62.40;28.33;;;;;;;4.56;96.65;102250.72;2091719;28;20382;-71
2021/11/16 02:12:18;;;;;;;63.05;29.33;;;;;;;4.59;96.21;102247.28;2091587;28;20455;-70
2021/11/16 02:13:20;;;;;;;61.72;29.02;;;;;;;4.59;95.66;102242.09;2091630;28;20044;-72
2021/11/16 02:14:20;;;;;;;65.25;30.05;;;;;;;4.61;95.87;102246.44;2091644;28;20033;-70
2021/11/16 02:15:20;;;;;;;59.07;27.40;;;;;;;4.62;96.07;102248.16;2090933;28;20033;-70
2021/11/16 02:16:22;;;;;;;61.07;29.00;;;;;;;4.60;96.25;102247.28;2091006;28;20241;-70
2021/11/16 02:17:22;;;;;;;56.78;27.10;;;;;;;4.60;96.32;102249.88;2091580;28;20482;-70
2021/11/16 02:18:23;;;;;;;55.70;26.83;;;;;;;4.61;96.17;102245.53;2091643;28;20112;-70
2021/11/16 02:19:23;;;;;;;68.73;29.67;;;;;;;4.61;96.65;102245.53;2091522;28;20079;-70
2021/11/16 02:20:31;;;;;;;56.43;28.43;;;;;;;4.61;96.30;102249.00;2090900;28;20037;-70
2021/11/16 02:21:31;;;;;;;62.90;28.92;;;;;;;4.60;95.91;102244.69;2090935;28;20053;-69
2021/11/16 02:22:32;;;;;;;53.85;26.52;;;;;;;4.62;95.55;102242.97;2090979;28;20041;-69
2021/11/16 02:23:33;;;;;;;62.08;28.55;;;;;;;4.61;95.92;102246.44;2091711;28;20029;-70
2021/11/16 02:24:33;;;;;;;63.33;27.95;;;;;;;4.60;96.59;102242.13;2090799;28;20053;-70
2021/11/16 02:25:35;;;;;;;58.60;25.37;;;;;;;4.62;96.70;102239.53;2082623;28;20059;-70
2021/11/16 02:26:36;;;;;;;65.13;28.70;;;;;;;4.61;96.60;102238.66;2082671;28;20112;-70
2021/11/16 02:27:36;;;;;;;66.60;30.60;;;;;;;4.60;96.40;102238.66;2090889;28;20268;-70
2021/11/16 02:28:37;;;;;;;59.57;28.57;;;;;;;4.61;96.46;102238.66;2091490;28;20048;-70
2021/11/16 02:29:37;;;;;;;61.28;29.05;;;;;;;4.61;95.82;102241.25;2090797;28;20791;-71
2021/11/16 02:30:38;;;;;;;64.83;29.10;;;;;;;4.64;96.61;102237.81;2090898;28;20025;-71
2021/11/16 02:31:39;;;;;;;67.87;28.97;;;;;;;4.63;96.57;102239.53;2091399;28;20013;-71
2021/11/16 02:32:43;;;;;;;62.85;29.15;;;;;;;4.63;96.93;102239.53;2091461;28;20287;-71
2021/11/16 02:33:43;;;;;;;69.10;28.40;;;;;;;4.60;97.18;102239.53;2090765;28;20059;-70
2021/11/16 02:34:43;;;;;;;63.20;28.45;;;;;;;4.61;97.14;102240.38;2090865;28;20032;-70
2021/11/16 02:35:45;;;;;;;62.80;29.90;;;;;;;4.61;96.64;102238.66;2091472;28;20430;-70
2021/11/16 02:36:45;;;;;;;69.82;30.25;;;;;;;4.59;97.02;102242.94;2091420;28;20035;-71
2021/11/16 02:37:47;;;;;;;64.63;28.80;;;;;;;4.58;96.92;102241.22;2091466;28;20025;-71
2021/11/16 02:38:49;;;;;;;61.95;27.35;;;;;;;4.56;96.95;102237.78;2090754;28;20025;-71
2021/11/16 02:39:50;;;;;;;62.20;27.35;;;;;;;4.54;96.79;102238.59;2090900;28;20195;-72
2021/11/16 02:40:53;;;;;;;69.23;29.87;;;;;;;4.53;97.28;102239.47;2091383;28;20083;-71
2021/11/16 02:41:54;;;;;;;59.78;29.70;;;;;;;4.51;97.18;102242.03;2091382;28;20283;-72
2021/11/16 02:42:54;;;;;;;65.78;30.83;;;;;;;4.49;97.63;102246.34;2091444;28;20055;-71
2021/11/16 02:43:57;;;;;;;59.72;28.38;;;;;;;4.49;97.65;102238.59;2090779;28;20025;-71
2021/11/16 02:44:57;;;;;;;60.20;27.27;;;;;;;4.50;97.31;102242.91;2090738;28;20021;-70
2021/11/16 02:45:58;;;;;;;62.90;27.53;;;;;;;4.51;97.30;102239.47;2090715;28;20031;-70
2021/11/16 02:46:58;;;;;;;61.00;27.45;;;;;;;4.52;97.91;102236.03;2090840;28;20025;-70
2021/11/16 02:47:59;;;;;;;63.93;28.93;;;;;;;4.52;97.64;102236.03;2090713;28;20028;-70
2021/11/16 02:49:00;;;;;;;68.15;29.25;;;;;;;4.51;97.36;102236.88;2090967;28;20056;-70
2021/11/16 02:50:00;;;;;;;63.58;29.67;;;;;;;4.52;97.40;102236.03;2090779;28;20083;-70
2021/11/16 02:51:05;;;;;;;65.60;30.30;;;;;;;4.52;97.36;102236.03;2090922;28;20524;-71
2021/11/16 02:52:15;;;;;;;63.50;27.65;;;;;;;4.53;97.78;102242.06;2090706;28;20139;-71
2021/11/16 02:53:16;;;;;;;63.80;28.40;;;;;;;4.51;97.89;102235.16;2090837;28;20059;-70
2021/11/16 02:54:20;;;;;;;68.20;29.85;;;;;;;4.50;97.91;102238.63;2091302;28;20031;-70
2021/11/16 02:55:20;;;;;;;64.30;30.00;;;;;;;4.48;98.23;102234.28;2090643;28;20036;-72
2021/11/16 02:56:20;;;;;;;62.77;27.60;;;;;;;4.45;98.09;102239.44;2090798;28;20099;-71
2021/11/16 02:57:21;;;;;;;68.43;30.70;;;;;;;4.42;97.51;102236.84;2091318;28;20445;-70
2021/11/16 02:58:23;;;;;;;60.70;27.92;;;;;;;4.42;98.01;102236.84;2091324;28;20106;-70
2021/11/16 02:59:24;;;;;;;63.42;28.00;;;;;;;4.42;98.54;102244.59;2091280;28;20459;-70
2021/11/16 03:00:24;;;;;;;65.17;29.57;;;;;;;4.43;98.79;102233.38;2091359;28;20024;-70
2021/11/16 03:01:24;;;;;;;62.93;29.13;;;;;;;4.44;97.87;102227.34;2090596;28;20017;-70
2021/11/16 03:02:25;;;;;;;61.70;29.60;;;;;;;4.45;98.08;102235.13;2090640;28;20025;-70
2021/11/16 03:03:25;;;;;;;61.83;29.57;;;;;;;4.45;98.23;102231.69;2090679;28;20021;-70
2021/11/16 03:04:25;;;;;;;66.77;30.57;;;;;;;4.43;98.07;102229.09;2091267;28;20044;-70
2021/11/16 03:05:36;;;;;;;60.43;27.60;;;;;;;4.43;98.40;102230.81;2090523;28;20025;-69
2021/11/16 03:06:36;;;;;;;58.20;26.85;;;;;;;4.42;99.01;102229.97;2090712;28;20056;-69
2021/11/16 03:07:44;;;;;;;63.17;29.27;;;;;;;4.42;98.78;102229.09;2091284;28;20032;-70
2021/11/16 03:08:45;;;;;;;66.18;29.33;;;;;;;4.42;99.34;102227.38;2091218;28;20036;-71
2021/11/16 03:09:50;;;;;;;61.67;28.00;;;;;;;4.42;99.02;102226.50;2090415;28;20393;-70
2021/11/16 03:10:59;;;;;;;66.80;29.10;;;;;;;4.43;98.68;102235.97;2091214;28;20490;-70
2021/11/16 03:12:00;;;;;;;66.40;28.92;;;;;;;4.42;98.69;102229.09;2091199;28;20032;-67
2021/11/16 03:13:00;;;;;;;70.32;30.58;;;;;;;4.40;99.09;102225.59;2091238;28;20390;-67
2021/11/16 03:14:01;;;;;;;62.97;28.53;;;;;;;4.40;98.78;102230.78;2091185;28;20025;-67
2021/11/16 03:15:03;;;;;;;64.43;28.87;;;;;;;4.39;99.10;102227.34;2091195;28;20112;-68
2021/11/16 03:16:16;;;;;;;65.97;28.55;;;;;;;4.39;99.16;102222.19;2091221;28;20024;-67
2021/11/16 03:17:16;;;;;;;66.05;29.38;;;;;;;4.37;98.85;102227.34;2091115;28;20025;-67
2021/11/16 03:18:17;;;;;;;60.63;27.23;;;;;;;4.40;99.10;102226.47;2091115;28;20470;-67
2021/11/16 03:19:18;;;;;;;68.05;28.83;;;;;;;4.41;99.06;102222.19;2091165;28;20021;-68
2021/11/16 03:20:19;;;;;;;64.55;27.85;;;;;;;4.40;99.03;102223.91;2090431;28;20112;-67
2021/11/16 03:21:23;;;;;;;64.43;29.15;;;;;;;4.40;99.27;102228.19;2090519;28;20037;-66
2021/11/16 03:22:30;;;;;;;59.47;28.20;;;;;;;4.40;99.12;102223.03;2091175;28;20036;-67
2021/11/16 03:23:32;;;;;;;69.15;28.67;;;;;;;4.38;99.09;102216.13;2091176;28;20500;-67
2021/11/16 03:24:34;;;;;;;;;;;;;;;4.40;99.07;102218.72;2091399;28;20529;-67
2021/11/16 03:25:39;;;;;;;66.93;28.20;;;;;;;4.39;99.28;102219.59;2091015;28;20013;-67
2021/11/16 03:26:39;;;;;;;61.90;27.17;;;;;;;4.37;98.92;102217.00;2091101;28;20051;-67
2021/11/16 03:27:41;;;;;;;59.33;26.63;;;;;;;4.39;99.29;102219.59;2091096;28;20107;-67
2021/11/16 03:28:45;;;;;;;67.82;28.20;;;;;;;4.37;99.02;102216.13;2091065;28;20028;-67
2021/11/16 03:29:48;;;;;;;67.75;29.63;;;;;;;4.38;99.47;102217.88;2090315;28;20024;-67
2021/11/16 03:30:51;;;;;;;66.68;28.92;;;;;;;4.40;99.30;102215.25;2082398;28;20025;-66
2021/11/16 03:32:00;;;;;;;61.15;28.15;;;;;;;4.40;99.00;102215.25;2090408;28;20414;-67
2021/11/16 03:33:01;;;;;;;64.05;27.65;;;;;;;4.41;98.98;102217.03;2090949;28;20032;-66
2021/11/16 03:34:01;;;;;;;61.10;28.30;;;;;;;4.41;98.96;102212.69;2091146;28;20059;-67
2021/11/16 03:35:04;;;;;;;63.33;28.37;;;;;;;4.40;98.68;102213.56;2091020;28;20044;-67
2021/11/16 03:36:05;;;;;;;70.90;30.58;;;;;;;4.38;98.41;102207.53;2090967;28;20029;-68
2021/11/16 03:37:05;;;;;;;68.57;29.50;;;;;;;4.38;98.78;102215.28;2091004;28;20086;-67
2021/11/16 03:38:07;;;;;;;67.73;28.37;;;;;;;4.37;98.93;102217.00;2090964;28;20021;-67
2021/11/16 03:39:07;;;;;;;68.55;29.92;;;;;;;4.38;99.08;102213.53;2090331;28;20183;-67
2021/11/16 03:40:09;;;;;;;65.20;27.30;;;;;;;4.38;98.83;102212.69;2082142;28;20564;-66
2021/11/16 03:41:11;;;;;;;61.92;28.90;;;;;;;4.35;98.70;102212.69;2090389;28;20483;-67
2021/11/16 03:42:13;;;;;;;65.63;31.13;;;;;;;4.33;98.97;102210.09;2090402;28;20035;-66
2021/11/16 03:43:16;;;;;;;66.80;30.20;;;;;;;4.31;99.01;102211.78;2090960;28;20033;-68
2021/11/16 03:44:17;;;;;;;64.35;28.77;;;;;;;4.31;99.26;102214.38;2090873;28;20390;-67
2021/11/16 03:45:22;;;;;;;67.40;28.80;;;;;;;4.34;99.32;102216.97;2090970;28;20020;-67
2021/11/16 03:46:23;;;;;;;66.13;28.88;;;;;;;4.34;99.49;102214.38;2091031;28;20465;-67
2021/11/16 03:47:23;;;;;;;69.15;28.58;;;;;;;4.36;99.72;102210.09;2090989;28;20024;-67
2021/11/16 03:48:24;;;;;;;71.25;30.42;;;;;;;4.38;99.46;102215.28;2090972;28;20402;-67
2021/11/16 03:49:24;;;;;;;65.22;30.45;;;;;;;4.37;99.16;102217.00;2090837;28;20036;-67
2021/11/16 03:50:27;;;;;;;74.77;32.27;;;;;;;4.37;98.95;102222.16;2090297;28;20052;-67
2021/11/16 03:51:27;;;;;;;72.35;31.70;;;;;;;4.38;99.13;102216.13;2082150;28;20044;-67
2021/11/16 03:52:27;;;;;;;65.43;30.13;;;;;;;4.37;99.29;102217.00;2090357;28;20056;-67
2021/11/16 03:53:29;;;;;;;67.17;28.80;;;;;;;4.36;99.22;102217.88;2090208;28;20032;-67
2021/11/16 03:54:29;;;;;;;71.68;28.70;;;;;;;4.38;99.25;102215.28;2090275;28;20552;-67
2021/11/16 03:55:33;;;;;;;71.33;30.50;;;;;;;4.40;99.53;102215.25;2090848;28;20071;-67
2021/11/16 03:56:33;;;;;;;66.80;28.83;;;;;;;4.38;99.05;102210.97;2090911;28;20489;-67
2021/11/16 03:57:35;;;;;;;60.03;28.10;;;;;;;4.39;99.24;102209.25;2090214;28;20033;-67
2021/11/16 03:58:37;;;;;;;;;;;;;;;4.43;98.88;102212.72;2082403;28;20294;-67
2021/11/16 03:59:37;;;;;;;72.70;26.65;;;;;;;4.41;98.53;102211.84;2090253;28;19916;-67
2021/11/16 04:00:41;;;;;;;70.20;30.10;;;;;;;4.41;98.26;102207.53;2090812;28;20051;-66
2021/11/16 04:01:42;;;;;;;66.90;28.25;;;;;;;4.37;98.81;102217.00;2090782;28;20021;-67
2021/11/16 04:02:42;;;;;;;70.33;29.07;;;;;;;4.35;98.57;102210.94;2090172;28;20118;-67
2021/11/16 04:03:43;;;;;;;71.70;30.77;;;;;;;4.32;98.86;102218.69;2090210;28;20490;-67
2021/11/16 04:04:44;;;;;;;74.18;30.70;;;;;;;4.31;99.04;102213.53;2090816;28;20279;-67
2021/11/16 04:05:46;;;;;;;65.75;26.98;;;;;;;4.32;99.39;102213.53;2090864;28;20096;-67
2021/11/16 04:06:46;;;;;;;66.13;29.92;;;;;;;4.30;99.73;102215.22;2090759;28;20061;-67
2021/11/16 04:07:47;;;;;;;66.07;32.17;;;;;;;4.30;99.90;102215.22;2090896;28;20051;-67
2021/11/16 04:08:47;;;;;;;72.90;32.23;;;;;;;4.30;99.96;102215.22;2090125;28;20541;-67
2021/11/16 04:09:48;;;;;;;66.83;30.47;;;;;;;4.30;100.00;102215.22;2081928;28;20033;-67
2021/11/16 04:10:49;;;;;;;65.17;27.93;;;;;;;4.32;100.00;102216.13;2081930;28;20478;-66
2021/11/16 04:11:50;;;;;;;71.65;28.98;;;;;;;4.32;100.00;102217.81;2090220;28;20371;-67
2021/11/16 04:12:51;;;;;;;73.38;30.20;;;;;;;4.33;100.00;102215.25;2090975;28;20086;-66
2021/11/16 04:13:52;;;;;;;68.28;28.35;;;;;;;4.33;100.00;102214.38;2090820;28;20029;-65
2021/11/16 04:14:52;;;;;;;65.03;28.98;;;;;;;4.33;100.00;102215.25;2090137;28;20020;-67
2021/11/16 04:15:53;;;;;;;69.93;31.60;;;;;;;4.35;100.00;102218.69;2090238;28;20096;-66
2021/11/16 04:16:54;;;;;;;65.03;28.17;;;;;;;4.34;100.00;102214.38;2090678;28;20021;-67
2021/11/16 04:17:56;;;;;;;66.68;30.17;;;;;;;4.34;100.00;102214.38;2090689;28;20029;-67
2021/11/16 04:18:56;;;;;;;74.25;30.60;;;;;;;4.34;100.00;102211.81;2090708;28;20031;-67
2021/11/16 04:19:57;;;;;;;77.97;34.37;;;;;;;4.34;100.00;102211.81;2090031;28;20025;-67
2021/11/16 04:20:58;;;;;;;70.90;30.87;;;;;;;4.34;100.00;102219.56;2090017;28;20021;-66
2021/11/16 04:21:59;;;;;;;73.25;31.38;;;;;;;4.33;100.00;102212.66;2090585;28;20029;-67
2021/11/16 04:23:01;;;;;;;70.83;33.37;;;;;;;4.31;100.00;102216.94;2090617;28;20033;-66
2021/11/16 04:24:02;;;;;;;78.57;31.70;;;;;;;4.29;100.00;102213.50;2090648;28;20037;-67
2021/11/16 04:25:04;;;;;;;74.50;33.45;;;;;;;4.28;99.61;102214.38;2090635;28;20471;-67
2021/11/16 04:26:04;;;;;;;73.03;31.67;;;;;;;4.28;99.96;102210.91;2090611;28;20032;-67
2021/11/16 04:27:05;;;;;;;73.53;32.27;;;;;;;4.29;99.73;102216.09;2090659;28;20394;-66
2021/11/16 04:28:07;;;;;;;79.20;32.97;;;;;;;4.31;99.49;102216.09;2090629;28;20290;-67
2021/11/16 04:29:07;;;;;;;71.00;31.08;;;;;;;4.32;99.62;102218.69;2090614;28;20029;-67
2021/11/16 04:30:10;;;;;;;78.60;31.20;;;;;;;4.33;99.60;102214.38;2089983;28;20605;-69
2021/11/16 04:31:10;;;;;;;79.65;32.85;;;;;;;4.33;99.32;102212.66;2082053;28;20301;-67
2021/11/16 04:32:10;;;;;;;81.23;31.87;;;;;;;4.33;99.56;102215.25;2089984;28;20420;-68
2021/11/16 04:33:12;;;;;;;76.80;30.93;;;;;;;4.32;99.35;102213.53;2090552;28;20501;-67
2021/11/16 04:34:13;;;;;;;80.40;31.35;;;;;;;4.31;99.07;102211.78;2090577;28;20070;-67
2021/11/16 04:35:15;;;;;;;70.73;30.07;;;;;;;4.31;99.33;102216.94;2090642;28;20017;-67
2021/11/16 04:36:17;;;;;;;67.13;31.35;;;;;;;4.29;99.22;102216.09;2090513;28;20013;-67
2021/11/16 04:37:18;;;;;;;67.00;29.33;;;;;;;4.29;99.74;102216.09;2090532;28;20032;-67
2021/11/16 04:38:18;;;;;;;76.90;33.27;;;;;;;4.30;99.74;102214.34;2089914;28;20027;-67
2021/11/16 04:39:19;;;;;;;73.10;29.73;;;;;;;4.31;99.53;102210.94;2089945;28;20498;-67
2021/11/16 04:40:25;;;;;;;69.93;31.03;;;;;;;4.29;99.68;102216.09;2090526;28;20021;-67
2021/11/16 04:41:25;;;;;;;69.43;29.80;;;;;;;4.29;99.63;102215.22;2090527;28;20021;-66
2021/11/16 04:42:27;;;;;;;69.22;30.38;;;;;;;4.28;99.68;102216.06;2090545;28;20029;-67
2021/11/16 04:43:29;;;;;;;74.80;30.90;;;;;;;4.27;99.55;102210.03;2089787;28;20079;-67
2021/11/16 04:44:30;;;;;;;72.53;29.50;;;;;;;4.29;99.27;102218.69;2089934;28;20021;-67